• Join FlightAware (Why Join?)
  • Login
  • US Flag 
09:07AM EDT


 

Airport Tracker/Info


-or-


 

Live Flight TrackerFlight Track Log ✈ UAL1519 ✈ 18-Apr-2013 ✈ KEWR - TIST / STT

Flight Track Log - Related Links

Times and Time Zones

All times are in EDT time to prevent confusion due to time zone crossing. See the UAL1519 flight status page for this flight to view local times or setup timezone preferences in your user account.

Time Position Orientation Groundspeed Altitude Reporting Facility
EDT Latitude Longitude Course Direction KTS MPH feet Rate Location/Type
10:14AM 40.7333 -74.1333 114° Southeast 193 222 2,000  Level New York TRACON
10:15AM 40.7833 -74.1833 323° Northwest 247 284 5,700 3,000 Climbing New York TRACON
10:16AM 40.3463 -74.1710 161° South  Level FlightAware Approximate
10:16AM 40.7333 -74.2333 217° Southwest 254 292 8,400  Level New York TRACON
10:17AM 40.2243 -74.1500 180° South  Level FlightAware Approximate
10:17AM 40.6667 -74.2167 169° South 263 303 11,300  Level New York TRACON
10:18AM 40.0996 -74.1500 180° South  Level FlightAware Approximate
10:18AM 40.5833 -74.2167 180° South 322 371 13,000  Level New York TRACON
10:19AM 40.0521 -74.0230 114° Southeast  Level FlightAware Approximate
10:19AM 40.4833 -74.2000 173° South 354 407 15,000  Level New York TRACON
10:21AM 40.2975 -74.1889 177° South 376 433 15,000 60 Level New York Center
10:22AM 40.2125 -74.1711 171° South 359 413 15,300 1,380 Climbing New York Center
10:23AM 40.1539 -74.0378 120° Southeast 350 403 17,800 2,160 Climbing New York Center
10:24AM 40.1175 -73.9167 111° Southeast 375 432 19,700 2,100 Climbing New York Center
10:25AM 40.0694 -73.7653 112° Southeast 399 459 22,100 1,560 Climbing New York Center
10:26AM 39.9842 -73.6806 143° Southeast 405 466 22,900 420 Climbing New York Center
10:27AM 39.8861 -73.5925 145° Southeast 405 466 23,000  Climbing New York Center
10:28AM 39.7922 -73.5050 144° Southeast 418 481 23,000  Level New York Center
10:29AM 39.6883 -73.4092 145° Southeast 418 481 23,000 780 Level New York Center
10:30AM 39.5983 -73.3275 145° Southeast 418 481 24,600 1,680 Climbing New York Center
10:31AM 39.4983 -73.2325 144° Southeast 437 503 26,500 1,920 Climbing New York Center
10:32AM 39.3958 -73.1428 146° Southeast 437 503 28,500 2,100 Climbing New York Center
10:33AM 39.2994 -73.0564 145° Southeast 437 503 30,700 1,260 Climbing New York Center
10:34AM 39.1992 -72.9622 144° Southeast 436 502 31,000 120 Climbing New York Center
10:35AM 39.1008 -72.8761 146° Southeast 436 502 31,000 720 Level New York Center
10:36AM 39.0003 -72.7850 145° Southeast 436 502 32,500 1,320 Climbing New York Center
10:37AM 38.9017 -72.6967 145° Southeast 436 502 33,700 1,440 Climbing New York Center
10:38AM 38.8008 -72.6033 144° Southeast 441 507 35,400 1,620 Climbing New York Center
10:39AM 38.7022 -72.5158 145° Southeast 441 507 37,000 780 Climbing New York Center
10:40AM 38.6053 -72.4364 147° Southeast 431 496 37,000 -60 Level New York Center
10:41AM 38.5064 -72.3489 145° Southeast 437 503 36,900  Descending New York Center
10:42AM 38.4075 -72.2567 144° Southeast 437 503 37,000  Climbing New York Center
10:43AM 38.3067 -72.1672 145° Southeast 437 503 37,000 -60 Level New York Center
10:44AM 38.2056 -72.0781 145° Southeast 437 503 36,900  Descending New York Center
10:45AM 38.1042 -71.9892 145° Southeast 437 503 37,000  Climbing New York Center
10:46AM 38.0050 -71.9031 146° Southeast 437 503 37,000 -60 Level New York Center
10:47AM 37.9036 -71.8225 148° Southeast 437 503 36,900 -60 Descending New York Center
10:48AM 37.8042 -71.7317 144° Southeast 437 503 36,900  Level New York Center
10:49AM 37.7028 -71.6411 145° Southeast 437 503 37,000  Climbing New York Center
10:50AM 37.6053 -71.5508 144° Southeast 437 503 37,000  Level New York Center
10:51AM 37.4956 -71.4631 148° Southeast 432 497 37,000 -60 Level New York Center
10:52AM 37.3958 -71.3967 152° Southeast 439 505 36,900 -60 Descending New York Center
10:53AM 37.2667 -71.3669 170° South 425 489 36,900  Level New York Center
10:55AM 37.0794 -71.2044 155° Southeast  Level FlightAware Approximate
11:02AM 36.2892 -70.7413 155° Southeast  Level FlightAware Approximate
11:03AM 36.1761 -70.6763 155° Southeast  Level FlightAware Approximate
11:04AM 36.0629 -70.6115 155° Southeast  Level FlightAware Approximate
11:05AM 35.9497 -70.5468 155° Southeast  Level FlightAware Approximate
11:06AM 35.8364 -70.4824 155° Southeast  Level FlightAware Approximate
11:07AM 35.7210 -70.4256 168° South  Level FlightAware Approximate
11:08AM 35.5991 -70.3932 168° South  Level FlightAware Approximate
11:09AM 35.4772 -70.3609 168° South  Level FlightAware Approximate
11:09AM 35.7667 -70.4500 168° South 451 519 37,000  Level New York Oceanic (ODAPS)
11:10AM 35.3553 -70.3287 168° South  Level FlightAware Approximate
11:11AM 35.2333 -70.2966 168° South  Level FlightAware Approximate
11:12AM 35.1114 -70.2645 168° South  Level FlightAware Approximate
11:13AM 34.9894 -70.2326 168° South  Level FlightAware Approximate
11:14AM 34.8675 -70.2008 168° South  Level FlightAware Approximate
11:15AM 34.7455 -70.1690 168° South  Level FlightAware Approximate
11:16AM 34.6447 -70.1568 168° South 451 519 37,000  Level FlightAware Transoceanic
11:17AM 34.5200 -70.1247 168° South 451 519 37,000  Level FlightAware Transoceanic
11:18AM 34.3952 -70.0928 168° South 451 519 37,000  Level FlightAware Transoceanic
11:19AM 34.2705 -70.0609 168° South 451 519 37,000  Level FlightAware Transoceanic
11:20AM 34.1458 -70.0291 168° South 451 519 37,000  Level FlightAware Transoceanic
11:21AM 34.0210 -69.9974 168° South 451 519 37,000  Level FlightAware Transoceanic
11:22AM 33.8963 -69.9658 168° South 451 519 37,000  Level FlightAware Transoceanic
11:23AM 33.7715 -69.9342 168° South 451 519 37,000  Level FlightAware Transoceanic
11:24AM 33.6468 -69.9028 168° South 451 519 37,000  Level FlightAware Transoceanic
11:25AM 33.5220 -69.8715 168° South 451 519 37,000  Level FlightAware Transoceanic
11:26AM 33.3972 -69.8402 168° South 451 519 37,000  Level FlightAware Transoceanic
11:27AM 33.2724 -69.8091 168° South 451 519 37,000  Level FlightAware Transoceanic
11:28AM 33.1476 -69.7780 168° South 451 519 37,000  Level FlightAware Transoceanic
11:29AM 33.0228 -69.7471 168° South 451 519 37,000  Level FlightAware Transoceanic
11:30AM 32.8980 -69.7162 168° South 451 519 37,000  Level FlightAware Transoceanic
11:31AM 32.7732 -69.6854 168° South 451 519 37,000  Level FlightAware Transoceanic
11:32AM 32.6483 -69.6546 168° South 451 519 37,000  Level FlightAware Transoceanic
11:33AM 32.5235 -69.6240 168° South 451 519 37,000  Level FlightAware Transoceanic
11:34AM 32.3987 -69.5935 168° South 451 519 37,000  Level FlightAware Transoceanic
11:34AM 33.3000 -69.8167 168° South 463 533 37,000  Level New York Oceanic (ODAPS)
11:35AM 32.2738 -69.5630 168° South 451 519 37,000  Level FlightAware Transoceanic
11:36AM 32.1490 -69.5326 168° South 451 519 37,000  Level FlightAware Transoceanic
11:37AM 32.0241 -69.5023 168° South 451 519 37,000  Level FlightAware Transoceanic
11:38AM 31.8992 -69.4721 168° South 451 519 37,000  Level FlightAware Transoceanic
11:39AM 31.7743 -69.4420 168° South 451 519 37,000  Level FlightAware Transoceanic
11:40AM 31.6495 -69.4119 168° South 451 519 37,000  Level FlightAware Transoceanic
11:41AM 31.6582 -69.4143 168° South 463 533 37,000  Level FlightAware Transoceanic
11:42AM 31.5318 -69.3839 168° South 463 533 37,000  Level FlightAware Transoceanic
11:43AM 31.4055 -69.3536 168° South 463 533 37,000  Level FlightAware Transoceanic
11:44AM 31.2791 -69.3234 168° South 463 533 37,000  Level FlightAware Transoceanic
11:45AM 31.1528 -69.2933 168° South 463 533 37,000  Level FlightAware Transoceanic
11:46AM 31.0264 -69.2633 169° South 463 533 37,000  Level FlightAware Transoceanic
11:47AM 30.9000 -69.2333 168° South 463 533 37,000  Level FlightAware Transoceanic
11:48AM 30.7748 -69.2035 168° South 463 533 37,000  Level FlightAware Transoceanic
11:49AM 30.6495 -69.1737 168° South 463 533 37,000  Level FlightAware Transoceanic
11:50AM 30.5243 -69.1440 168° South 463 533 37,000  Level FlightAware Transoceanic
11:51AM 30.3990 -69.1143 168° South 463 533 37,000  Level FlightAware Transoceanic
11:52AM 30.2737 -69.0848 168° South 463 533 37,000  Level FlightAware Transoceanic
11:53AM 30.1485 -69.0553 169° South 463 533 37,000  Level FlightAware Transoceanic
11:54AM 30.0232 -69.0259 169° South 463 533 37,000  Level FlightAware Transoceanic
11:55AM 29.8979 -68.9966 169° South 463 533 37,000  Level FlightAware Transoceanic
11:56AM 29.7726 -68.9673 169° South 463 533 37,000  Level FlightAware Transoceanic
11:57AM 29.6473 -68.9381 169° South 463 533 37,000  Level FlightAware Transoceanic
11:58AM 29.5220 -68.9090 169° South 463 533 37,000  Level FlightAware Transoceanic
11:59AM 29.3967 -68.8800 169° South 463 533 37,000  Level FlightAware Transoceanic
11:59AM 30.9000 -69.2333 168° South 451 519 37,000  Level New York Oceanic (ODAPS)
12:00PM 29.2714 -68.8510 169° South 463 533 37,000  Level FlightAware Transoceanic
12:01PM 29.1460 -68.8221 169° South 463 533 37,000  Level FlightAware Transoceanic
12:02PM 29.0207 -68.7933 169° South 463 533 37,000  Level FlightAware Transoceanic
12:03PM 28.8953 -68.7646 169° South 463 533 37,000  Level FlightAware Transoceanic
12:04PM 28.7700 -68.7359 169° South 463 533 37,000  Level FlightAware Transoceanic
12:05PM 28.7700 -68.7359 169° South 451 519 37,000  Level FlightAware Transoceanic
12:06PM 28.6447 -68.7073 169° South 451 519 37,000  Level FlightAware Transoceanic
12:07PM 28.5193 -68.6787 169° South 451 519 37,000  Level FlightAware Transoceanic
12:08PM 28.3939 -68.6502 169° South 451 519 37,000  Level FlightAware Transoceanic
12:09PM 28.2686 -68.6218 169° South 451 519 37,000  Level FlightAware Transoceanic
12:10PM 28.1432 -68.5935 169° South 451 519 37,000  Level FlightAware Transoceanic
12:11PM 28.0178 -68.5652 169° South 451 519 37,000  Level FlightAware Transoceanic
12:12PM 27.8924 -68.5370 169° South 451 519 37,000  Level FlightAware Transoceanic
12:13PM 27.7670 -68.5088 169° South 451 519 37,000  Level FlightAware Transoceanic
12:14PM 27.6416 -68.4807 169° South 451 519 37,000  Level FlightAware Transoceanic
12:15PM 27.5162 -68.4527 169° South 451 519 37,000  Level FlightAware Transoceanic
12:15PM 27.9333 -68.5333 169° South 474 545 37,000  Level New York Oceanic (ODAPS)
12:16PM 27.3908 -68.4248 169° South 451 519 37,000  Level FlightAware Transoceanic
12:17PM 27.2654 -68.3969 169° South 451 519 37,000  Level FlightAware Transoceanic
12:18PM 27.1400 -68.3690 169° South 451 519 37,000  Level FlightAware Transoceanic
12:19PM 27.0146 -68.3413 169° South 451 519 37,000  Level FlightAware Transoceanic
12:20PM 26.8891 -68.3136 169° South 451 519 37,000  Level FlightAware Transoceanic
12:21PM 26.7740 -68.2778 169° South 474 545 37,000  Level FlightAware Transoceanic
12:22PM 26.6452 -68.2498 169° South 474 545 37,000  Level FlightAware Transoceanic
12:23PM 26.5164 -68.2218 169° South 474 545 37,000  Level FlightAware Transoceanic
12:24PM 26.3875 -68.1938 169° South 474 545 37,000  Level FlightAware Transoceanic
12:25PM 26.2587 -68.1659 169° South 474 545 37,000  Level FlightAware Transoceanic
12:26PM 26.1298 -68.1381 169° South 474 545 37,000  Level FlightAware Transoceanic
12:27PM 26.0009 -68.1104 169° South 474 545 37,000  Level FlightAware Transoceanic
12:28PM 25.8721 -68.0827 169° South 474 545 37,000  Level FlightAware Transoceanic
12:29PM 25.7432 -68.0551 169° South 474 545 37,000  Level FlightAware Transoceanic
12:30PM 25.6143 -68.0275 169° South 474 545 37,000  Level FlightAware Transoceanic
12:31PM 25.4854 -68.0000 169° South 474 545 37,000  Level FlightAware Transoceanic
12:32PM 25.3565 -67.9725 169° South 474 545 37,000  Level FlightAware Transoceanic
12:33PM 25.2276 -67.9451 169° South 474 545 37,000  Level FlightAware Transoceanic
12:34PM 25.0987 -67.9178 169° South 474 545 37,000  Level FlightAware Transoceanic
12:34PM 25.4667 -68.0000 169° South 473 544 37,000  Level New York Oceanic (ODAPS)
12:35PM 24.9698 -67.8905 169° South 474 545 37,000  Level FlightAware Transoceanic
12:36PM 24.8409 -67.8633 169° South 474 545 37,000  Level FlightAware Transoceanic
12:37PM 24.7120 -67.8361 169° South 474 545 37,000  Level FlightAware Transoceanic
12:38PM 24.5831 -67.8090 169° South 474 545 37,000  Level FlightAware Transoceanic
12:39PM 24.4542 -67.7820 169° South 474 545 37,000  Level FlightAware Transoceanic
12:40PM 24.3252 -67.7550 169° South 474 545 37,000  Level FlightAware Transoceanic
12:41PM 24.1838 -67.7281 169° South 473 544 37,000  Level FlightAware Transoceanic
12:42PM 24.0555 -67.7012 169° South 473 544 37,000  Level FlightAware Transoceanic
12:43PM 23.9272 -67.6743 169° South 473 544 37,000  Level FlightAware Transoceanic
12:44PM 23.7988 -67.6476 169° South 473 544 37,000  Level FlightAware Transoceanic
12:45PM 23.6705 -67.6208 169° South 473 544 37,000  Level FlightAware Transoceanic
12:46PM 23.5422 -67.5941 169° South 473 544 37,000  Level FlightAware Transoceanic
12:46PM 23.4500 -67.6000 169° South 490 564 37,000  Level San Juan Center
12:47PM 23.4138 -67.5675 169° South 473 544 37,000  Level FlightAware Transoceanic
12:47PM 23.3167 -67.5833 173° South 480 552 37,000  Level San Juan Center
12:48PM 23.2855 -67.5409 169° South 473 544 37,000  Level FlightAware Transoceanic
12:48PM 23.1833 -67.5500 167° South 480 552 37,000  Level San Juan Center
12:49PM 23.1572 -67.5144 169° South 473 544 37,000  Level FlightAware Transoceanic
12:49PM 23.0833 -67.5333 171° South 480 552 37,000  Level San Juan Center
12:50PM 23.0288 -67.4880 169° South 473 544 37,000  Level FlightAware Transoceanic
12:50PM 22.9167 -67.5000 170° South 470 541 37,000  Level San Juan Center
12:51PM 22.9004 -67.4615 169° South 473 544 37,000  Level FlightAware Transoceanic
12:51PM 22.7833 -67.4667 167° South 480 552 37,000  Level San Juan Center
12:52PM 22.7721 -67.4352 169° South 473 544 37,000  Level FlightAware Transoceanic
12:52PM 22.6667 -67.4500 172° South 470 541 37,000  Level San Juan Center
12:53PM 22.5333 -67.4167 167° South 470 541 37,000  Level San Juan Center
12:54PM 22.4000 -67.3833 167° South 480 552 37,000  Level San Juan Center
12:55PM 22.2667 -67.3667 173° South 480 552 37,000  Level San Juan Center
12:56PM 22.1333 -67.3333 167° South 470 541 37,000  Level San Juan Center
12:57PM 22.0000 -67.3167 173° South 480 552 37,000  Level San Juan Center
12:58PM 22.2333 -67.3167 170° South 443 510 37,000  Level New York Oceanic (ODAPS)
12:58PM 21.8833 -67.2833 170° South 470 541 37,000  Level San Juan Center
12:59PM 21.7500 -67.2500 167° South 470 541 37,000  Level San Juan Center
01:00PM 21.6167 -67.2167 167° South 480 552 37,000  Level San Juan Center
01:01PM 21.5000 -67.1667 158° South 500 575 37,000  Level San Juan Center
01:02PM 21.3833 -67.0833 146° Southeast 510 587 37,000  Level San Juan Center
01:03PM 21.2667 -67.0000 146° Southeast 510 587 37,000  Level San Juan Center
01:04PM 21.1333 -66.9167 150° Southeast 500 575 37,000  Level San Juan Center
01:06PM 21.0167 -66.8500 152° Southeast 500 575 37,000  Level San Juan Center
01:07PM 20.9000 -66.7667 146° Southeast 500 575 37,000  Level San Juan Center
01:08PM 20.7833 -66.7000 152° Southeast 500 575 37,000  Level San Juan Center
01:09PM 20.6667 -66.6167 146° Southeast 500 575 37,000  Level San Juan Center
01:10PM 20.5333 -66.5333 150° Southeast 490 564 37,000  Level San Juan Center
01:11PM 20.4167 -66.4667 152° Southeast 500 575 37,000 -300 Level San Juan Center
01:12PM 20.3000 -66.3833 146° Southeast 490 564 36,400 -780 Descending San Juan Center
01:13PM 20.1833 -66.3167 152° Southeast 500 575 35,500 -900 Descending San Juan Center
01:14PM 20.0667 -66.2333 146° Southeast 500 575 34,600 -1,200 Descending San Juan Center
01:15PM 19.9333 -66.1500 150° Southeast 500 575 33,200 -1,920 Descending San Juan Center
01:16PM 19.8167 -66.0833 152° Southeast 500 575 30,800 -2,340 Descending San Juan Center
01:17PM 19.7000 -66.0167 152° Southeast 480 552 28,600 -2,100 Descending San Juan Center
01:18PM 19.6000 -65.9333 142° Southeast 460 529 26,600 -2,100 Descending San Juan Center
01:19PM 19.5000 -65.8833 155° Southeast 430 495 24,500 -1,980 Descending San Juan Center
01:20PM 19.4000 -65.8167 148° Southeast 420 483 22,700 -1,800 Descending San Juan Center
01:21PM 19.3000 -65.7500 148° Southeast 400 460 20,900 -1,800 Descending San Juan Center
01:22PM 19.2167 -65.7000 150° Southeast 370 426 19,200 -1,680 Descending San Juan Center
01:23PM 19.1167 -65.6500 155° Southeast 360 414 17,600 -1,740 Descending San Juan Center
01:24PM 19.0333 -65.5833 143° Southeast 350 403 15,700 -1,800 Descending San Juan Center
01:25PM 18.9500 -65.5333 150° Southeast 350 403 14,000 -1,740 Descending San Juan Center
01:26PM 18.8667 -65.4833 150° Southeast 330 380 12,300 -1,680 Descending San Juan Center
01:27PM 18.7833 -65.4333 150° Southeast 320 368 10,700 -1,320 Descending San Juan Center
01:28PM 18.7167 -65.3833 145° Southeast 310 357 9,700 -960 Descending San Juan Center
01:29PM 18.6333 -65.3500 159° South 270 311 8,800 -960 Descending San Juan Center
01:30PM 18.5833 -65.3167 148° Southeast 250 288 7,800 -960 Descending San Juan Center
01:31PM 18.5167 -65.2833 155° Southeast 250 288 6,900 -1,080 Descending San Juan Center
01:32PM 18.4500 -65.2500 155° Southeast 250 288 5,700 -1,020 Descending San Juan Center
01:33PM 18.4000 -65.2167 148° Southeast 240 276 4,900 -960 Descending San Juan Center
01:34PM 18.3333 -65.1833 155° Southeast 220 253 3,800 -1,020 Descending San Juan Center
01:35PM 18.3167 -65.1333 109° East 190 219 2,900 -900 Descending San Juan Center